createdAt,value
2022-12-23T00:01:35.963Z,23.02
2022-12-23T00:04:03.320Z,21.40
2022-12-23T00:06:30.187Z,24.00
2022-12-23T00:08:59.798Z,27.33
2022-12-23T00:11:28.440Z,23.95
2022-12-23T00:14:20.427Z,19.73
2022-12-23T00:16:50.328Z,23.67
2022-12-23T00:19:17.422Z,22.90
2022-12-23T00:21:44.342Z,24.42
2022-12-23T00:24:11.967Z,25.45
2022-12-23T00:26:39.580Z,30.35
2022-12-23T00:29:06.382Z,27.98
2022-12-23T00:31:33.278Z,24.10
2022-12-23T00:34:00.229Z,24.08
2022-12-23T00:36:29.233Z,23.33
2022-12-23T00:39:16.380Z,21.42
2022-12-23T00:42:02.364Z,24.80
2022-12-23T00:44:29.366Z,21.83
2022-12-23T00:46:56.299Z,22.77
2022-12-23T00:49:41.463Z,21.52
2022-12-23T00:52:11.203Z,25.73
2022-12-23T00:54:38.523Z,24.98
2022-12-23T00:57:05.682Z,19.83
2022-12-23T00:59:33.369Z,22.90
2022-12-23T01:02:18.726Z,20.55
2022-12-23T01:05:04.070Z,21.02
2022-12-23T01:07:31.036Z,24.48
2022-12-23T01:09:57.852Z,25.30
2022-12-23T01:12:24.677Z,25.98
2022-12-23T01:14:51.551Z,20.98
2022-12-23T01:17:18.759Z,21.88
2022-12-23T01:19:45.707Z,26.38
2022-12-23T01:22:12.604Z,23.63
2022-12-23T01:24:39.484Z,19.42
2022-12-23T01:27:06.341Z,25.13
2022-12-23T01:29:33.212Z,25.08
2022-12-23T01:32:00.199Z,24.73
2022-12-23T01:34:32.557Z,28.48
2022-12-23T01:37:03.231Z,27.23
2022-12-23T01:39:30.060Z,26.30
2022-12-23T01:42:20.200Z,29.30
2022-12-23T01:44:50.512Z,30.10
2022-12-23T01:47:26.537Z,30.25
2022-12-23T01:50:01.867Z,32.08
2022-12-23T01:52:29.919Z,28.83
2022-12-23T01:54:57.339Z,29.88
2022-12-23T01:57:24.857Z,34.22
2022-12-23T02:00:10.662Z,28.25
2022-12-23T02:02:59.943Z,31.92
2022-12-23T02:05:27.321Z,32.83
2022-12-23T02:08:13.531Z,31.95
2022-12-23T02:11:17.435Z,32.60
2022-12-23T02:14:41.745Z,36.47
2022-12-23T02:17:25.405Z,33.13
2022-12-23T02:20:16.228Z,37.65
2022-12-23T02:23:16.848Z,31.50
2022-12-23T02:26:12.899Z,36.45
2022-12-23T02:29:00.812Z,33.95
2022-12-23T02:31:43.048Z,37.30
2022-12-23T02:34:20.876Z,39.30
2022-12-23T02:36:59.375Z,40.40
2022-12-23T02:39:58.788Z,39.47
2022-12-23T02:42:57.221Z,33.95
2022-12-23T02:45:30.670Z,41.20
2022-12-23T02:48:03.606Z,35.47
2022-12-23T02:50:33.567Z,41.13
2022-12-23T02:53:05.053Z,37.75
2022-12-23T02:55:35.893Z,42.08
2022-12-23T02:58:07.390Z,38.33
2022-12-23T03:00:36.330Z,43.47
2022-12-23T03:03:03.533Z,41.33
2022-12-23T03:05:39.246Z,40.60
2022-12-23T03:08:11.738Z,46.78
2022-12-23T03:10:41.417Z,49.05
2022-12-23T03:13:31.190Z,43.60
2022-12-23T03:16:13.373Z,41.22
2022-12-23T03:19:01.237Z,38.45
2022-12-23T03:21:42.627Z,40.55
2022-12-23T03:24:15.283Z,43.10
2022-12-23T03:27:08.701Z,39.88
2022-12-23T03:29:53.742Z,38.78
2022-12-23T03:32:23.264Z,40.13
2022-12-23T03:34:53.650Z,46.40
2022-12-23T03:37:22.569Z,43.80
2022-12-23T03:39:54.905Z,42.72
2022-12-23T03:42:29.308Z,44.08
2022-12-23T03:47:53.399Z,50.25
2022-12-23T03:50:22.882Z,44.33
2022-12-23T03:53:02.618Z,43.95
2022-12-23T03:55:41.807Z,46.78
2022-12-23T03:58:39.787Z,45.80
2022-12-23T04:01:25.745Z,47.30
2022-12-23T04:04:03.807Z,45.53
2022-12-23T04:06:41.109Z,36.10
2022-12-23T04:09:08.823Z,40.95
2022-12-23T04:11:36.684Z,44.90
2022-12-23T04:14:03.722Z,41.58
2022-12-23T04:16:30.759Z,44.92
2022-12-23T04:18:57.717Z,37.10
2022-12-23T04:21:24.639Z,45.47
2022-12-23T04:23:51.513Z,39.53
2022-12-23T04:26:18.363Z,38.95
2022-12-23T04:28:45.194Z,35.33
2022-12-23T04:31:12.168Z,38.35
2022-12-23T04:33:39.158Z,40.80
2022-12-23T04:36:06.211Z,42.47
2022-12-23T04:38:33.176Z,41.50
2022-12-23T04:41:00.048Z,45.83
2022-12-23T04:43:26.903Z,51.40
2022-12-23T04:45:53.893Z,38.47
2022-12-23T04:48:21.039Z,33.72
2022-12-23T04:50:48.036Z,43.05
2022-12-23T04:53:14.979Z,39.22
2022-12-23T04:55:41.963Z,46.67
2022-12-23T04:58:08.823Z,43.22
2022-12-23T05:00:39.752Z,42.00
2022-12-23T05:03:07.069Z,36.42
2022-12-23T05:05:34.096Z,38.10
2022-12-23T05:08:06.243Z,42.92
2022-12-23T05:10:33.209Z,36.75
2022-12-23T05:13:00.148Z,38.83
2022-12-23T05:15:26.980Z,41.58
2022-12-23T05:17:53.904Z,42.45
2022-12-23T05:20:20.696Z,36.38
2022-12-23T05:22:47.573Z,38.72
2022-12-23T05:25:14.476Z,34.85
2022-12-23T05:27:41.308Z,36.55
2022-12-23T05:30:08.957Z,36.03
2022-12-23T05:32:36.054Z,38.22
2022-12-23T05:35:02.920Z,38.70
2022-12-23T05:37:29.911Z,39.40
2022-12-23T05:39:56.773Z,32.47
2022-12-23T05:42:23.750Z,36.33
2022-12-23T05:44:50.604Z,37.13
2022-12-23T05:47:17.502Z,39.45
2022-12-23T05:49:44.354Z,40.92
2022-12-23T05:52:11.283Z,35.40
2022-12-23T05:54:38.115Z,32.22
2022-12-23T05:57:04.944Z,38.88
2022-12-23T05:59:32.019Z,34.20
2022-12-23T06:01:59.176Z,37.20
2022-12-23T06:04:26.303Z,36.58
2022-12-23T06:06:53.377Z,37.60
2022-12-23T06:09:20.271Z,38.58
2022-12-23T06:11:47.186Z,41.03
2022-12-23T06:14:14.133Z,34.38
2022-12-23T06:16:41.091Z,35.88
2022-12-23T06:19:08.314Z,44.22
2022-12-23T06:21:35.323Z,37.95
2022-12-23T06:24:02.209Z,35.08
2022-12-23T06:26:29.051Z,34.85
2022-12-23T06:28:56.014Z,43.58
2022-12-23T06:31:22.909Z,38.58
2022-12-23T06:33:49.769Z,34.22
2022-12-23T06:36:16.625Z,34.72
2022-12-23T06:38:43.487Z,37.50
2022-12-23T06:41:10.517Z,30.90
2022-12-23T06:43:37.320Z,33.53
2022-12-23T06:46:04.397Z,38.92
2022-12-23T06:48:31.423Z,39.50
2022-12-23T06:50:58.292Z,33.78
2022-12-23T06:53:25.253Z,35.35
2022-12-23T06:56:03.134Z,30.88
2022-12-23T06:58:30.275Z,37.17
2022-12-23T07:00:57.221Z,36.08
2022-12-23T07:03:24.091Z,42.42
2022-12-23T07:05:51.798Z,42.88
2022-12-23T07:08:19.277Z,57.47
2022-12-23T07:10:46.538Z,44.85
2022-12-23T07:13:13.433Z,38.38
2022-12-23T07:15:40.306Z,43.33
2022-12-23T07:18:07.704Z,31.92
2022-12-23T07:20:34.528Z,33.53
2022-12-23T07:23:01.513Z,31.20
2022-12-23T07:25:28.412Z,35.80
2022-12-23T07:27:55.770Z,32.45
2022-12-23T07:30:23.555Z,33.92
2022-12-23T07:32:50.972Z,32.60
2022-12-23T07:35:18.606Z,33.70
2022-12-23T07:37:45.528Z,32.85
2022-12-23T07:40:13.683Z,36.30
2022-12-23T07:42:46.011Z,28.20
2022-12-23T07:45:13.242Z,30.30
2022-12-23T07:47:40.096Z,33.38
2022-12-23T07:50:07.693Z,28.25
2022-12-23T07:52:34.800Z,30.55
2022-12-23T07:55:01.705Z,30.83
2022-12-23T07:57:29.429Z,28.65
2022-12-23T07:59:56.323Z,30.30
2022-12-23T08:02:25.294Z,34.25
2022-12-23T08:04:52.561Z,31.23
2022-12-23T08:07:19.403Z,32.72
2022-12-23T08:09:46.289Z,34.80
2022-12-23T08:12:13.131Z,44.97
2022-12-23T08:14:40.048Z,38.72
2022-12-23T08:17:06.974Z,31.85
2022-12-23T08:19:33.824Z,33.50
2022-12-23T08:22:00.858Z,34.00
2022-12-23T08:24:27.668Z,38.47
2022-12-23T08:26:54.898Z,36.60
2022-12-23T08:29:21.748Z,37.80
2022-12-23T08:31:50.345Z,38.53
2022-12-23T08:34:19.373Z,37.00
2022-12-23T08:36:46.242Z,34.15
2022-12-23T08:39:13.162Z,30.30
2022-12-23T08:41:43.697Z,37.88
2022-12-23T08:44:11.070Z,33.08
2022-12-23T08:46:38.285Z,36.25
2022-12-23T08:49:06.402Z,39.22
2022-12-23T08:51:33.557Z,30.48
2022-12-23T08:54:01.761Z,33.17
2022-12-23T08:56:39.071Z,30.85
2022-12-23T08:59:06.433Z,30.63
2022-12-23T09:01:34.658Z,31.95
2022-12-23T09:04:06.397Z,30.77
2022-12-23T09:06:38.262Z,26.05
2022-12-23T09:09:05.743Z,30.60
2022-12-23T09:11:33.849Z,27.80
2022-12-23T09:14:01.705Z,27.30
2022-12-23T09:16:29.733Z,24.50
2022-12-23T09:18:57.374Z,27.10
2022-12-23T09:21:25.001Z,25.92
2022-12-23T09:23:52.264Z,24.08
2022-12-23T09:26:24.848Z,28.52
2022-12-23T09:28:51.891Z,25.70
2022-12-23T09:31:19.825Z,24.67
2022-12-23T09:33:49.439Z,23.20
2022-12-23T09:36:16.860Z,22.60
2022-12-23T09:38:43.909Z,25.80
2022-12-23T09:41:29.086Z,24.55
2022-12-23T09:44:20.764Z,24.70
2022-12-23T09:46:53.675Z,27.75
2022-12-23T09:49:22.636Z,23.05
2022-12-23T09:51:54.169Z,29.52
2022-12-23T09:54:46.047Z,24.40
2022-12-23T09:59:54.105Z,30.00
2022-12-23T10:02:29.678Z,34.70
2022-12-23T10:05:24.348Z,25.95
2022-12-23T10:08:08.374Z,22.30
2022-12-23T10:10:51.254Z,27.23
2022-12-23T10:13:26.819Z,25.40
2022-12-23T10:15:56.229Z,18.73
2022-12-23T10:19:01.666Z,18.88
2022-12-23T10:21:51.698Z,19.20
2022-12-23T10:24:23.124Z,21.00
2022-12-23T10:26:57.545Z,18.52
2022-12-23T10:29:26.555Z,28.05
2022-12-23T10:32:18.358Z,22.65
2022-12-23T10:35:08.527Z,20.63
2022-12-23T10:37:56.255Z,23.92
2022-12-23T10:40:50.260Z,23.13
2022-12-23T10:43:41.369Z,20.85
2022-12-23T10:46:37.961Z,20.67
2022-12-23T10:49:16.939Z,21.67
2022-12-23T10:51:52.843Z,22.85
2022-12-23T10:54:26.794Z,22.90
2022-12-23T10:56:54.338Z,19.48
2022-12-23T10:59:27.648Z,22.95
2022-12-23T11:02:14.924Z,24.55
2022-12-23T11:04:45.064Z,26.60
2022-12-23T11:07:43.497Z,24.38
2022-12-23T11:10:07.806Z,23.70
2022-12-23T11:12:45.513Z,26.45
2022-12-23T11:15:30.048Z,25.33
2022-12-23T11:18:17.569Z,26.30
2022-12-23T11:21:05.609Z,21.33
2022-12-23T11:23:36.578Z,21.67
2022-12-23T11:26:06.931Z,22.42
2022-12-23T11:28:40.927Z,20.25
2022-12-23T11:31:14.579Z,22.05
2022-12-23T11:33:49.657Z,20.55
2022-12-23T11:36:25.905Z,28.35
2022-12-23T11:39:01.824Z,21.60
2022-12-23T11:41:34.879Z,24.75
2022-12-23T11:44:04.752Z,24.90
2022-12-23T11:46:34.298Z,20.67
2022-12-23T11:49:12.379Z,22.88
2022-12-23T11:51:39.269Z,24.00
2022-12-23T11:54:06.114Z,25.55
2022-12-23T11:56:40.664Z,25.77
2022-12-23T11:59:26.239Z,28.73
2022-12-23T12:01:53.702Z,28.52
2022-12-23T12:04:26.429Z,26.30
2022-12-23T12:06:56.836Z,23.00
2022-12-23T12:09:24.854Z,22.58
2022-12-23T12:12:06.300Z,22.30
2022-12-23T12:14:42.837Z,20.70
2022-12-23T12:17:23.378Z,19.30
2022-12-23T12:19:59.800Z,20.80
2022-12-23T12:22:51.915Z,17.98
2022-12-23T12:25:22.385Z,23.67
2022-12-23T12:27:56.423Z,17.77
2022-12-23T12:30:23.489Z,18.23
2022-12-23T12:32:59.519Z,15.50
2022-12-23T12:35:38.379Z,25.25
2022-12-23T12:38:11.216Z,30.30
2022-12-23T12:40:49.882Z,23.67
2022-12-23T12:43:24.325Z,16.85
2022-12-23T12:46:25.590Z,20.95
2022-12-23T12:49:00.402Z,17.95
2022-12-23T12:51:34.400Z,16.40
2022-12-23T12:54:16.556Z,18.17
2022-12-23T12:56:55.090Z,19.48
2022-12-23T12:59:27.138Z,20.55
2022-12-23T13:02:15.911Z,20.08
2022-12-23T13:04:48.967Z,16.23
2022-12-23T13:07:40.503Z,17.55
2022-12-23T13:10:45.979Z,25.20
2022-12-23T13:13:34.071Z,18.50
2022-12-23T13:16:38.627Z,18.40
2022-12-23T13:19:13.642Z,22.45
2022-12-23T13:21:51.694Z,15.65
2022-12-23T13:24:37.150Z,18.42
2022-12-23T13:27:24.998Z,15.93
2022-12-23T13:30:03.378Z,25.13
2022-12-23T13:33:02.205Z,17.42
2022-12-23T13:35:35.181Z,20.33
2022-12-23T13:38:45.720Z,22.15
2022-12-23T13:41:24.624Z,19.02
2022-12-23T13:44:01.504Z,17.70
2022-12-23T13:46:31.273Z,24.77
2022-12-23T13:49:07.005Z,25.30
2022-12-23T13:51:44.613Z,20.10
2022-12-23T13:54:25.235Z,22.65
2022-12-23T13:57:08.380Z,20.42
2022-12-23T13:59:44.073Z,22.27
2022-12-23T14:02:37.340Z,23.50
2022-12-23T14:05:37.366Z,21.45
2022-12-23T14:08:18.394Z,23.13
2022-12-23T14:10:58.673Z,17.90
2022-12-23T14:13:29.618Z,17.08
2022-12-23T14:16:11.906Z,16.77
2022-12-23T14:18:53.567Z,16.85
2022-12-23T14:21:48.299Z,18.92
2022-12-23T14:24:25.891Z,16.88
2022-12-23T14:27:14.559Z,22.17
2022-12-23T14:30:05.916Z,21.48
2022-12-23T14:32:45.883Z,22.70
2022-12-23T14:35:47.839Z,21.70
2022-12-23T14:38:15.012Z,18.95
2022-12-23T14:41:19.537Z,18.80
2022-12-23T14:43:46.359Z,23.58
2022-12-23T14:46:51.498Z,14.95
2022-12-23T14:49:39.963Z,23.50
2022-12-23T14:52:39.280Z,21.75
2022-12-23T14:55:31.718Z,16.30
2022-12-23T14:58:22.860Z,18.50
2022-12-23T15:00:52.817Z,17.98
2022-12-23T15:03:20.348Z,18.27
2022-12-23T15:05:47.507Z,18.00
2022-12-23T15:08:33.183Z,19.48
2022-12-23T15:11:00.461Z,19.85
2022-12-23T15:13:28.865Z,19.92
2022-12-23T15:16:01.332Z,15.65
2022-12-23T15:18:29.028Z,19.38
2022-12-23T15:21:01.573Z,17.73
2022-12-23T15:23:28.826Z,18.02
2022-12-23T15:26:01.388Z,15.68
2022-12-23T15:28:37.649Z,17.92
2022-12-23T15:31:05.139Z,23.50
2022-12-23T15:34:02.773Z,23.52
2022-12-23T15:39:00.737Z,19.10
2022-12-23T15:41:28.306Z,21.45
2022-12-23T15:44:01.828Z,22.80
2022-12-23T15:46:30.537Z,19.67
2022-12-23T15:48:58.109Z,20.95
2022-12-23T15:54:31.866Z,21.13
2022-12-23T15:57:00.660Z,23.83
2022-12-23T15:59:33.113Z,24.60
2022-12-23T16:02:58.394Z,23.35
2022-12-23T16:05:06.216Z,20.30
2022-12-23T16:07:41.496Z,25.40
2022-12-23T16:10:21.799Z,22.98
2022-12-23T16:12:52.110Z,21.23
2022-12-23T16:15:33.365Z,22.23
2022-12-23T16:18:19.137Z,26.40
2022-12-23T16:20:49.562Z,30.08
2022-12-23T16:23:17.384Z,25.98
2022-12-23T16:25:50.870Z,21.80
2022-12-23T16:28:24.270Z,23.45
2022-12-23T16:30:57.263Z,22.35
2022-12-23T16:33:42.596Z,22.85
2022-12-23T16:36:27.684Z,22.50
2022-12-23T16:39:06.706Z,21.77
2022-12-23T16:41:34.442Z,18.27
2022-12-23T16:44:02.007Z,19.95
2022-12-23T16:46:34.264Z,23.25
2022-12-23T16:49:04.872Z,22.08
2022-12-23T16:51:34.306Z,21.37
2022-12-23T16:54:02.056Z,24.38
2022-12-23T16:56:33.181Z,24.67
2022-12-23T16:59:00.021Z,24.98
2022-12-23T17:01:33.363Z,31.20
2022-12-23T17:04:00.576Z,38.05
2022-12-23T17:06:27.788Z,34.20
2022-12-23T17:08:55.108Z,33.53
2022-12-23T17:11:43.413Z,36.05
2022-12-23T17:14:19.841Z,31.15
2022-12-23T17:16:47.828Z,34.17
2022-12-23T17:19:15.663Z,29.00
2022-12-23T17:21:44.520Z,31.25
2022-12-23T17:24:24.359Z,30.63
2022-12-23T17:26:51.530Z,23.85
2022-12-23T17:29:18.561Z,19.48
2022-12-23T17:31:45.814Z,17.77
2022-12-23T17:34:18.740Z,16.30
2022-12-23T17:36:50.031Z,12.93
2022-12-23T17:39:18.464Z,13.43
2022-12-23T17:41:45.412Z,11.73
2022-12-23T17:44:16.602Z,13.98
2022-12-23T17:46:44.573Z,10.07
2022-12-23T17:49:11.411Z,10.80
2022-12-23T17:51:40.338Z,14.32
2022-12-23T17:54:07.291Z,13.93
2022-12-23T17:56:34.186Z,13.27
2022-12-23T17:59:01.123Z,11.48
2022-12-23T18:01:30.948Z,13.25
2022-12-23T18:03:59.643Z,18.73
2022-12-23T18:06:28.452Z,18.88
2022-12-23T18:08:57.449Z,17.05
2022-12-23T18:11:34.762Z,15.75
2022-12-23T18:14:02.558Z,17.50
2022-12-23T18:16:29.632Z,18.75
2022-12-23T18:18:57.460Z,21.15
2022-12-23T18:21:28.556Z,29.60
2022-12-23T18:23:58.620Z,32.42
2022-12-23T18:26:25.961Z,31.85
2022-12-23T18:28:54.346Z,22.85
2022-12-23T18:31:24.276Z,16.33
2022-12-23T18:33:52.193Z,16.60
2022-12-23T18:36:25.591Z,20.95
2022-12-23T18:38:53.205Z,24.65
2022-12-23T18:41:21.496Z,24.23
2022-12-23T18:43:48.960Z,19.65
2022-12-23T18:46:16.000Z,14.65
2022-12-23T18:48:43.148Z,13.43
2022-12-23T18:51:15.165Z,14.85
2022-12-23T18:53:43.533Z,10.65
2022-12-23T18:56:14.914Z,17.98
2022-12-23T18:58:42.292Z,13.63
2022-12-23T19:01:13.111Z,16.17
2022-12-23T19:03:40.626Z,15.18
2022-12-23T19:06:08.955Z,12.05
2022-12-23T19:08:37.455Z,12.77
2022-12-23T19:11:16.873Z,10.60
2022-12-23T19:13:44.424Z,16.10
2022-12-23T19:16:20.526Z,12.38
2022-12-23T19:18:48.687Z,9.95
2022-12-23T19:21:17.648Z,10.60
2022-12-23T19:23:51.145Z,12.50
2022-12-23T19:26:18.127Z,14.60
2022-12-23T19:28:45.017Z,10.77
2022-12-23T19:31:14.531Z,9.05
2022-12-23T19:33:44.324Z,8.30
2022-12-23T19:36:17.330Z,9.32
2022-12-23T19:38:44.231Z,7.15
2022-12-23T19:41:11.557Z,6.53
2022-12-23T19:43:38.992Z,9.40
2022-12-23T19:46:10.444Z,5.55
2022-12-23T19:48:38.133Z,5.10
2022-12-23T19:51:10.799Z,2.80
2022-12-23T19:53:38.405Z,2.67
2022-12-23T19:56:08.634Z,2.05
2022-12-23T19:58:38.120Z,4.85
2022-12-23T20:01:14.508Z,3.63
2022-12-23T20:03:42.423Z,3.03
2022-12-23T20:06:18.090Z,2.10
2022-12-23T20:08:45.196Z,4.70
2022-12-23T20:11:15.861Z,3.08
2022-12-23T20:13:43.080Z,2.10
2022-12-23T20:16:10.402Z,3.28
2022-12-23T20:18:37.787Z,5.97
2022-12-23T20:21:04.947Z,2.63
2022-12-23T20:23:32.040Z,3.53
2022-12-23T20:25:59.467Z,6.32
2022-12-23T20:28:26.466Z,2.70
2022-12-23T20:31:13.103Z,2.30
2022-12-23T20:33:40.066Z,4.38
2022-12-23T20:36:07.656Z,2.72
2022-12-23T20:38:36.046Z,3.63
2022-12-23T20:41:03.204Z,1.27
2022-12-23T20:43:30.172Z,1.55
2022-12-23T20:45:57.045Z,4.22
2022-12-23T20:48:26.906Z,6.10
2022-12-23T20:51:07.228Z,3.30
2022-12-23T20:53:35.253Z,4.35
2022-12-23T20:56:07.726Z,4.40
2022-12-23T20:58:55.407Z,3.20
2022-12-23T21:01:25.353Z,1.42
2022-12-23T21:03:53.134Z,4.47
2022-12-23T21:06:20.559Z,3.22
2022-12-23T21:08:48.776Z,3.08
2022-12-23T21:11:16.392Z,1.92
2022-12-23T21:13:43.962Z,3.60
2022-12-23T21:16:12.822Z,3.63
2022-12-23T21:18:42.030Z,3.72
2022-12-23T21:21:09.121Z,2.42
2022-12-23T21:23:40.897Z,2.33
2022-12-23T21:26:25.212Z,1.95
2022-12-23T21:28:56.337Z,2.58
2022-12-23T21:31:23.892Z,1.23
2022-12-23T21:33:51.517Z,0.95
2022-12-23T21:36:23.371Z,2.28
2022-12-23T21:38:50.719Z,1.23
2022-12-23T21:41:24.305Z,1.30
2022-12-23T21:43:51.353Z,1.55
2022-12-23T21:46:22.469Z,2.35
2022-12-23T21:48:50.402Z,1.58
2022-12-23T21:51:25.802Z,2.55
2022-12-23T21:53:54.827Z,1.30
2022-12-23T21:56:24.417Z,1.95
2022-12-23T21:58:55.666Z,2.28
2022-12-23T22:01:23.064Z,2.47
2022-12-23T22:03:51.355Z,2.67
2022-12-23T22:06:22.034Z,1.73
2022-12-23T22:08:49.562Z,7.88
2022-12-23T22:11:19.229Z,11.35
2022-12-23T22:13:46.560Z,13.32
2022-12-23T22:16:18.774Z,22.50
2022-12-23T22:18:46.588Z,25.33
2022-12-23T22:21:17.578Z,31.23
2022-12-23T22:23:46.390Z,40.05
2022-12-23T22:26:20.239Z,45.88
2022-12-23T22:28:51.144Z,50.13
2022-12-23T22:31:19.957Z,46.58
2022-12-23T22:33:47.105Z,37.55
2022-12-23T22:36:15.676Z,23.90
2022-12-23T22:38:43.440Z,9.35
2022-12-23T22:41:11.193Z,6.55
2022-12-23T22:43:38.409Z,2.88
2022-12-23T22:46:05.840Z,1.30
2022-12-23T22:48:33.415Z,3.78
2022-12-23T22:51:09.468Z,2.05
2022-12-23T22:53:37.129Z,4.05
2022-12-23T22:56:04.564Z,4.40
2022-12-23T22:58:32.959Z,5.78
2022-12-23T23:01:00.141Z,7.47
2022-12-23T23:03:27.683Z,8.98
2022-12-23T23:06:06.852Z,5.95
2022-12-23T23:08:34.829Z,5.10
2022-12-23T23:11:03.802Z,6.35
2022-12-23T23:13:35.127Z,9.20
2022-12-23T23:16:02.927Z,12.05
2022-12-23T23:18:30.221Z,16.23
2022-12-23T23:20:57.160Z,15.15
2022-12-23T23:23:24.106Z,10.75
2022-12-23T23:25:51.006Z,11.27
2022-12-23T23:28:18.076Z,15.25
2022-12-23T23:30:44.990Z,17.00
2022-12-23T23:33:12.033Z,18.83
2022-12-23T23:35:39.271Z,15.88
2022-12-23T23:38:06.271Z,15.10
2022-12-23T23:40:33.157Z,10.40
2022-12-23T23:43:00.114Z,7.93
2022-12-23T23:45:27.660Z,5.97
2022-12-23T23:47:55.350Z,4.82
2022-12-23T23:50:22.582Z,5.43
2022-12-23T23:52:49.477Z,5.97
2022-12-23T23:55:17.602Z,4.80
2022-12-23T23:57:44.515Z,6.03
